Aviation Digital Data Service (ADDS)

Output produced by METARs form (0931 UTC 18 December 2014)
found at http://aviationweather.gov/adds/metars/
 
KATL 180745Z 1808/1912 32008KT P6SM BKN250 
     FM180800 31005KT P6SM SCT150 BKN250 
     FM181500 34006KT P6SM BKN060 
     FM190100 31005KT P6SM SCT080 BKN150 
     FM190900 31006KT P6SM SCT150